Terminal Aerodrome Forecast
Issued by NWS

Home | Current Version | Previous Version | Text Only | Print | Product List | Glossary On
Versions: 1 2 3 4 5 6 7 8 9 10 11 12 13 14 15
442
FTUS43 KEAX 211134
TAFSTJ
TAF
KSTJ 211134Z 2112/2212 15008KT 6SM BR OVC012
     FM220000 13007KT 5SM -SHRA VCTS OVC010CB
     FM220300 17008KT 5SM -SHRA BR OVC010
     FM220700 VRB03KT P6SM BKN150=

USA.gov is the U.S. government's official web portal to all federal, state and local government web resources and services.